• Join FlightAware (Why Join?)
  • Login
  • US Flag 
08:00AM EDT


 

Airport Tracker/Info


-or-


 

Live Flight TrackerFlight Track Log ✈ CAL5 ✈ 17-Jul-2013 ✈ KLAX - RCTP / TPE

Flight Track Log - Related Links

Times and Time Zones

All times are in EDT time to prevent confusion due to time zone crossing. See the CAL5 flight status page for this flight to view local times or setup timezone preferences in your user account.

Time Position Orientation Groundspeed Altitude Reporting Facility
EDT Latitude Longitude Course Direction KTS MPH feet Rate Location/Type
08:20PM 33.9340 -118.4350 263° West 182 209 800  Level FlightAware
08:20PM 33.9320 -118.4630 265° West 186 214 1,400 900 Climbing FlightAware
08:21PM 33.9280 -118.4980 262° West 208 239 1,700 600 Climbing FlightAware
08:21PM 33.9250 -118.5290 263° West 228 262 2,000 720 Climbing FlightAware
08:22PM 33.9210 -118.5710 263° West 249 287 2,400 720 Climbing FlightAware
08:22PM 33.9180 -118.6040 264° West 263 303 2,700 960 Climbing FlightAware
08:23PM 33.9130 -118.6470 262° West 287 330 3,300 1,440 Climbing FlightAware
08:23PM 33.9100 -118.6820 264° West 290 334 3,900 1,800 Climbing FlightAware
08:23PM 33.9050 -118.7330 263° West 301 346 4,800 1,740 Climbing FlightAware
08:24PM 33.9010 -118.7760 264° West 307 353 5,500 1,800 Climbing FlightAware
08:24PM 33.8990 -118.8030 265° West 312 359 6,000 1,680 Climbing FlightAware
08:25PM 33.8940 -118.8540 263° West 317 365 6,800 1,980 Climbing FlightAware
08:25PM 33.8880 -118.9030 262° West 318 366 7,700 2,040 Climbing FlightAware
08:25PM 33.8830 -118.9530 263° West 323 372 8,500 1,680 Climbing FlightAware
08:26PM 33.8790 -118.9960 264° West 325 374 9,200 1,560 Climbing FlightAware
08:26PM 33.8940 -119.0510 288° West 330 380 10,000 1,200 Climbing FlightAware
08:27PM 33.9490 -119.1170 315° West 355 409 10,800 600 Climbing FlightAware
08:28PM 34.0170 -119.1950 316° Northwest 369 425 11,200 240 Climbing FlightAware
08:29PM 34.0550 -119.2380 317° Northwest 369 425 11,200 1,680 Level FlightAware
08:30PM 34.1400 -119.3370 316° Northwest 425 489 13,600 2,460 Climbing FlightAware
08:30PM 34.1970 -119.4040 316° Northwest 428 493 14,800 1,200 Climbing FlightAware
08:31PM 34.2380 -119.4530 315° West 429 494 15,100 1,080 Climbing FlightAware
08:32PM 34.3210 -119.5500 316° Northwest 444 511 16,500 1,920 Climbing FlightAware
08:32PM 34.3890 -119.6290 316° Northwest 460 529 18,200 1,380 Climbing FlightAware
08:33PM 34.4540 -119.7070 315° West 464 534 18,600 1,380 Climbing FlightAware
08:34PM 34.5170 -119.7820 316° Northwest 475 547 20,100 1,500 Climbing FlightAware
08:34PM 34.5620 -119.8400 313° West 477 549 20,300 1,380 Climbing FlightAware
08:35PM 34.6360 -119.9410 312° West 485 558 22,000 1,680 Climbing FlightAware
08:36PM 34.7180 -120.0520 312° West 491 565 23,100 1,200 Climbing FlightAware
08:37PM 34.7860 -120.1430 312° West 495 570 24,000 1,080 Climbing FlightAware
08:37PM 34.8380 -120.2140 312° West 499 574 24,600 960 Climbing FlightAware
08:38PM 34.9090 -120.3110 312° West 507 583 25,300 480 Climbing FlightAware
08:39PM 34.9610 -120.3850 311° West 507 583 25,300  Level FlightAware
08:39PM 35.0090 -120.4530 311° West 507 583 25,300 1,260 Level FlightAware
08:40PM 35.1280 -120.6120 312° West 522 601 27,400 1,740 Climbing FlightAware
08:41PM 35.1880 -120.6940 312° West 520 598 28,200 1,200 Climbing FlightAware
08:42PM 35.2400 -120.7660 311° West 518 596 28,800 960 Climbing FlightAware
08:43PM 35.3400 -120.9040 312° West 518 596 29,800 660 Climbing FlightAware
08:43PM 35.4050 -120.9950 311° West 518 596 30,000 120 Climbing FlightAware
08:44PM 35.4730 -121.0890 312° West 515 593 30,000  Level FlightAware
08:45PM 35.5380 -121.1800 311° West 513 590 30,000  Level FlightAware
08:45PM 35.6130 -121.2690 316° Northwest 515 593 30,000  Level FlightAware
08:46PM 35.6760 -121.3220 326° Northwest 517 595 30,000  Level FlightAware
08:47PM 35.7650 -121.3920 327° Northwest 514 592 30,000  Level FlightAware
08:47PM 35.8530 -121.4600 328° Northwest 514 592 30,000  Level FlightAware
08:48PM 35.9230 -121.5160 327° Northwest 514 592 30,000  Level FlightAware
08:49PM 36.0030 -121.5790 328° Northwest 513 590 30,000  Level FlightAware
08:49PM 36.0940 -121.6510 327° Northwest 514 592 30,000  Level FlightAware
08:50PM 36.1550 -121.6990 328° Northwest 515 593 30,000  Level FlightAware
08:51PM 36.2320 -121.7610 327° Northwest 515 593 30,000  Level FlightAware
08:51PM 36.3250 -121.8350 327° Northwest 514 592 30,000  Level FlightAware
08:52PM 36.3960 -121.8920 327° Northwest 513 590 30,000  Level FlightAware
08:53PM 36.4760 -121.9550 328° Northwest 513 590 30,000  Level FlightAware
08:53PM 36.5630 -122.0260 327° Northwest 513 590 30,000  Level FlightAware
08:54PM 36.6440 -122.0910 327° Northwest 513 590 30,000  Level FlightAware
08:55PM 36.7270 -122.1580 327° Northwest 512 589 30,000  Level FlightAware
08:55PM 36.8110 -122.2260 327° Northwest 511 588 30,000  Level FlightAware
08:56PM 36.9010 -122.2990 327° Northwest 510 587 30,000  Level FlightAware
08:57PM 36.9730 -122.3580 327° Northwest 510 587 30,000  Level FlightAware
08:57PM 37.0510 -122.4210 327° Northwest 510 587 30,000  Level FlightAware
08:58PM 37.1300 -122.4860 327° Northwest 509 586 30,000  Level FlightAware
08:59PM 37.2080 -122.5500 327° Northwest 509 586 30,000  Level FlightAware
08:59PM 37.2880 -122.6160 327° Northwest 511 588 30,000  Level FlightAware
09:00PM 37.3670 -122.6810 327° Northwest 513 590 30,000  Level FlightAware
09:01PM 37.4430 -122.7440 327° Northwest 515 593 30,000  Level FlightAware
09:02PM 37.5350 -122.8210 326° Northwest 514 592 30,000  Level FlightAware
09:02PM 37.6160 -122.8880 327° Northwest 512 589 30,000  Level FlightAware
09:03PM 37.7020 -122.9600 326° Northwest 513 590 30,000  Level FlightAware
09:04PM 37.7810 -123.0250 327° Northwest 513 590 30,000  Level FlightAware
09:04PM 37.8510 -123.0840 326° Northwest 513 590 30,000  Level FlightAware
09:05PM 37.9350 -123.1540 327° Northwest 513 590 30,000  Level FlightAware
09:06PM 38.0210 -123.2270 326° Northwest 513 590 30,000  Level FlightAware
09:06PM 38.1050 -123.2980 326° Northwest 513 590 30,000  Level FlightAware
09:07PM 38.1780 -123.3600 326° Northwest 513 590 30,000  Level FlightAware
09:08PM 38.2700 -123.4380 326° Northwest 512 589 30,000  Level FlightAware
09:08PM 38.3490 -123.5050 326° Northwest 513 590 30,000  Level FlightAware
09:09PM 38.4190 -123.5660 326° Northwest 513 590 30,000  Level FlightAware
09:10PM 38.5000 -123.6340 327° Northwest 512 589 30,000  Level FlightAware
09:10PM 38.5890 -123.7110 326° Northwest 511 588 30,000  Level FlightAware
09:10PM 38.5990 -123.7200 325° Northwest 511 588 30,000  Level FlightAware
09:12PM 38.7280 -123.8310 326° Northwest 509 586 30,000  Level FlightAware
09:12PM 38.8060 -123.8980 326° Northwest 509 586 30,000  Level FlightAware
09:13PM 38.8720 -123.9570 325° Northwest 509 586 30,000  Level FlightAware
09:14PM 38.9960 -124.0630 326° Northwest 508 585 30,000  Level FlightAware
09:15PM 39.1070 -124.1610 326° Northwest 507 583 30,000  Level FlightAware
09:16PM 39.1850 -124.2320 325° Northwest 507 583 30,000  Level FlightAware
09:16PM 39.2440 -124.2850 325° Northwest 507 583 30,000  Level FlightAware
09:17PM 39.3030 -124.3380 325° Northwest 507 583 30,000  Level FlightAware
09:18PM 39.4310 -124.4460 327° Northwest 509 586 30,000  Level FlightAware
09:18PM 39.5200 -124.5240 326° Northwest 510 587 30,000  Level FlightAware
09:19PM 39.5700 -124.5690 325° Northwest 510 587 30,000  Level FlightAware
09:20PM 39.6710 -124.6600 325° Northwest 511 588 30,000  Level FlightAware
09:20PM 39.7450 -124.7260 326° Northwest 511 588 30,000  Level FlightAware
09:21PM 39.8040 -124.7800 325° Northwest 511 588 30,000  Level FlightAware
09:22PM 39.8830 -124.8520 325° Northwest 511 588 30,000  Level FlightAware
09:22PM 39.9420 -124.9060 325° Northwest 511 588 30,000  Level FlightAware
09:23PM 40.0680 -125.0170 326° Northwest 512 589 30,000  Level FlightAware
09:24PM 40.1310 -125.0740 325° Northwest 512 589 30,000  Level FlightAware
09:24PM 40.1900 -125.1290 325° Northwest 512 589 30,000  Level FlightAware
09:25PM 40.2700 -125.2010 326° Northwest 512 589 30,000  Level FlightAware
09:26PM 40.3290 -125.2560 325° Northwest 512 589 30,000  Level FlightAware
09:26PM 40.3880 -125.3100 325° Northwest 512 589 30,000  Level FlightAware
09:27PM 40.4490 -125.3660 325° Northwest 512 589 30,000  Level FlightAware
09:28PM 40.5290 -125.4390 325° Northwest 512 589 30,000  Level FlightAware
09:28PM 40.5900 -125.4960 325° Northwest 512 589 30,000  Level FlightAware
09:29PM 40.6690 -125.5690 325° Northwest 512 589 30,000  Level FlightAware
09:30PM 40.7280 -125.6230 325° Northwest 512 589 30,000  Level FlightAware
09:31PM 40.8070 -125.6970 325° Northwest 512 589 30,000  Level FlightAware
09:31PM 40.8670 -125.7520 325° Northwest 512 589 30,000  Level FlightAware
09:32PM 40.9460 -125.8250 325° Northwest 512 589 30,000  Level FlightAware
09:33PM 41.0050 -125.8800 325° Northwest 512 589 30,000  Level FlightAware
09:33PM 41.2311 -126.0944 325° Northwest 508 585 30,000 -120 Level Oakland Center
09:34PM 41.3242 -126.1808 325° Northwest 510 587 29,900  Descending Seattle Center
09:35PM 41.4400 -126.2914 324° Northwest 510 587 30,000  Climbing Seattle Center
09:36PM 41.5550 -126.4014 324° Northwest 509 586 30,000 -60 Level Seattle Center
09:37PM 41.6647 -126.5183 321° Northwest 506 582 29,900  Descending Seattle Center
09:38PM 41.7272 -126.6769 298° West 483 556 30,000  Climbing Seattle Center
09:39PM 41.7833 -126.8333 298° West 480 552 30,000  Level Oakland Oceanic (ODAPS)
09:46PM 42.2150 -127.9215 298° West 480 552 30,000  Level FlightAware Transoceanic
09:47PM 42.2758 -128.0782 298° West 480 552 30,000  Level FlightAware Transoceanic
09:48PM 42.3365 -128.2352 298° West 480 552 30,000  Level FlightAware Transoceanic
09:49PM 42.3969 -128.3925 297° West 480 552 30,000  Level FlightAware Transoceanic
09:50PM 42.4570 -128.5500 297° West 480 552 30,000  Level FlightAware Transoceanic
09:50PM 42.4500 -128.5333 297° West 490 564 30,000  Level Oakland Oceanic (ODAPS)
09:51PM 42.5170 -128.7079 297° West 480 552 30,000  Level FlightAware Transoceanic
09:52PM 42.5768 -128.8661 297° West 480 552 30,000  Level FlightAware Transoceanic
09:53PM 42.6363 -129.0246 297° West 480 552 30,000  Level FlightAware Transoceanic
09:54PM 42.6956 -129.1834 297° West 480 552 30,000  Level FlightAware Transoceanic
09:55PM 42.7547 -129.3424 297° West 480 552 30,000  Level FlightAware Transoceanic
09:56PM 42.8348 -129.5606 297° West 490 564 30,000  Level FlightAware Transoceanic
09:57PM 42.8980 -129.7330 297° West 490 564 30,000  Level FlightAware Transoceanic
09:58PM 42.9610 -129.9058 296° West 490 564 30,000  Level FlightAware Transoceanic
09:59PM 43.0237 -130.0790 296° West 490 564 30,000  Level FlightAware Transoceanic
10:00PM 43.0862 -130.2525 296° West 490 564 30,000  Level FlightAware Transoceanic
10:01PM 43.1483 -130.4263 296° West 490 564 30,000  Level FlightAware Transoceanic
10:02PM 43.2103 -130.6005 296° West 490 564 30,000  Level FlightAware Transoceanic
10:03PM 43.2719 -130.7751 296° West 490 564 30,000  Level FlightAware Transoceanic
10:04PM 43.3333 -130.9500 296° West 490 564 30,000  Level FlightAware Transoceanic
10:04PM 43.3333 -130.9500 296° West 506 582 30,000  Level Oakland Oceanic (ODAPS)
10:05PM 43.3960 -131.1299 296° West 490 564 30,000  Level FlightAware Transoceanic
10:06PM 43.4583 -131.3103 295° West 490 564 30,000  Level FlightAware Transoceanic
10:07PM 43.5204 -131.4909 295° West 490 564 30,000  Level FlightAware Transoceanic
10:08PM 43.5822 -131.6720 295° West 490 564 30,000  Level FlightAware Transoceanic
10:09PM 43.6437 -131.8534 295° West 490 564 30,000  Level FlightAware Transoceanic
10:10PM 43.6902 -131.9915 295° West 506 582 30,000  Level FlightAware Transoceanic
10:11PM 43.7487 -132.1663 295° West 506 582 30,000  Level FlightAware Transoceanic
10:12PM 43.8070 -132.3415 295° West 506 582 30,000  Level FlightAware Transoceanic
10:13PM 43.8651 -132.5170 295° West 506 582 30,000  Level FlightAware Transoceanic
10:14PM 43.9228 -132.6928 294° West 506 582 30,000  Level FlightAware Transoceanic
10:15PM 43.9803 -132.8689 294° West 506 582 30,000  Level FlightAware Transoceanic
10:16PM 44.0375 -133.0454 294° West 506 582 30,000 600 Level FlightAware Transoceanic
10:16PM 44.0500 -133.0667 294° West 508 585 31,000  Climbing Oakland Oceanic (ODAPS)
10:17PM 44.0944 -133.2222 294° West 506 582 30,000 -780 Descending FlightAware Transoceanic
10:18PM 44.1511 -133.3994 294° West 506 582 30,000  Level FlightAware Transoceanic
10:19PM 44.2075 -133.5769 294° West 506 582 30,000  Level FlightAware Transoceanic
10:20PM 44.2636 -133.7548 294° West 506 582 30,000  Level FlightAware Transoceanic
10:21PM 44.3194 -133.9330 294° West 506 582 30,000 480 Level FlightAware Transoceanic
10:22PM 44.3376 -133.9757 293° West 508 585 31,000 480 Climbing FlightAware Transoceanic
10:23PM 44.3943 -134.1586 293° West 508 585 31,000  Level FlightAware Transoceanic
10:24PM 44.4506 -134.3418 293° West 508 585 31,000  Level FlightAware Transoceanic
10:25PM 44.5067 -134.5254 293° West 508 585 31,000  Level FlightAware Transoceanic
10:26PM 44.5625 -134.7094 293° West 508 585 31,000  Level FlightAware Transoceanic
10:27PM 44.6180 -134.8936 293° West 508 585 31,000  Level FlightAware Transoceanic
10:28PM 44.6732 -135.0783 293° West 508 585 31,000  Level FlightAware Transoceanic
10:29PM 44.7280 -135.2633 293° West 508 585 31,000  Level FlightAware Transoceanic
10:30PM 44.7826 -135.4486 292° West 508 585 31,000  Level FlightAware Transoceanic
10:31PM 44.8369 -135.6343 292° West 508 585 31,000  Level FlightAware Transoceanic
10:32PM 44.8909 -135.8203 292° West 508 585 31,000  Level FlightAware Transoceanic
10:33PM 44.9446 -136.0067 292° West 508 585 31,000  Level FlightAware Transoceanic
10:34PM 44.9980 -136.1935 292° West 508 585 31,000  Level FlightAware Transoceanic
10:35PM 45.0510 -136.3805 292° West 508 585 31,000  Level FlightAware Transoceanic
10:36PM 45.1038 -136.5680 292° West 508 585 31,000  Level FlightAware Transoceanic
10:37PM 45.1563 -136.7557 292° West 508 585 31,000  Level FlightAware Transoceanic
10:38PM 45.2084 -136.9439 291° West 508 585 31,000  Level FlightAware Transoceanic
10:39PM 45.2603 -137.1323 291° West 508 585 31,000  Level FlightAware Transoceanic
10:40PM 45.3118 -137.3211 291° West 508 585 31,000  Level FlightAware Transoceanic
10:41PM 45.3630 -137.5103 291° West 508 585 31,000  Level FlightAware Transoceanic
10:42PM 45.4139 -137.6998 291° West 508 585 31,000  Level FlightAware Transoceanic
10:43PM 45.4645 -137.8896 291° West 508 585 31,000  Level FlightAware Transoceanic
10:43PM 45.5000 -138.0500 291° West 527 606 31,000  Level Oakland Oceanic (ODAPS)
10:44PM 45.5148 -138.0798 291° West 508 585 31,000  Level FlightAware Transoceanic
10:45PM 45.5648 -138.2703 290° West 508 585 31,000  Level FlightAware Transoceanic
10:46PM 45.6144 -138.4612 290° West 508 585 31,000  Level FlightAware Transoceanic
10:47PM 45.6637 -138.6523 290° West 508 585 31,000  Level FlightAware Transoceanic
10:48PM 45.7127 -138.8439 290° West 508 585 31,000  Level FlightAware Transoceanic
10:49PM 45.7614 -139.0357 290° West 508 585 31,000  Level FlightAware Transoceanic
10:50PM 45.8535 -139.4113 290° West 527 606 31,000  Level FlightAware Transoceanic
10:51PM 45.9027 -139.6072 290° West 527 606 31,000  Level FlightAware Transoceanic
10:52PM 45.9515 -139.8034 290° West 527 606 31,000  Level FlightAware Transoceanic
10:53PM 46.0000 -140.0000 282° West 527 606 31,000  Level FlightAware Transoceanic
10:53PM 46.0000 -140.0000 282° West 528 608 31,000  Level Oakland Oceanic (ODAPS)
10:54PM 46.0309 -140.2130 282° West 527 606 31,000  Level FlightAware Transoceanic
10:55PM 46.0614 -140.4262 282° West 527 606 31,000  Level FlightAware Transoceanic
10:56PM 46.0915 -140.6397 281° West 527 606 31,000  Level FlightAware Transoceanic
10:57PM 46.1212 -140.8534 281° West 527 606 31,000  Level FlightAware Transoceanic
10:58PM 46.1505 -141.0673 281° West 527 606 31,000  Level FlightAware Transoceanic
10:59PM 46.1722 -141.2279 281° West 528 608 31,000  Level FlightAware Transoceanic
11:00PM 46.1997 -141.4332 281° West 528 608 31,000  Level FlightAware Transoceanic
11:01PM 46.2267 -141.6388 281° West 528 608 31,000  Level FlightAware Transoceanic
11:02PM 46.2534 -141.8446 281° West 528 608 31,000  Level FlightAware Transoceanic
11:03PM 46.2798 -142.0506 280° West 528 608 31,000  Level FlightAware Transoceanic
11:04PM 46.3057 -142.2568 280° West 528 608 31,000  Level FlightAware Transoceanic
11:05PM 46.3313 -142.4632 280° West 528 608 31,000  Level FlightAware Transoceanic
11:06PM 46.3565 -142.6697 280° West 528 608 31,000  Level FlightAware Transoceanic
11:07PM 46.3813 -142.8765 280° West 528 608 31,000  Level FlightAware Transoceanic
11:08PM 46.4058 -143.0834 280° West 528 608 31,000  Level FlightAware Transoceanic
11:09PM 46.4299 -143.2906 280° West 528 608 31,000  Level FlightAware Transoceanic
11:10PM 46.4536 -143.4979 279° West 528 608 31,000  Level FlightAware Transoceanic
11:10PM 46.4500 -143.4333 279° West 529 609 31,000  Level Oakland Oceanic (ODAPS)
11:11PM 46.4769 -143.7054 279° West 528 608 31,000  Level FlightAware Transoceanic
11:12PM 46.4999 -143.9130 279° West 528 608 31,000  Level FlightAware Transoceanic
11:13PM 46.5225 -144.1209 279° West 528 608 31,000  Level FlightAware Transoceanic
11:14PM 46.5447 -144.3289 279° West 528 608 31,000  Level FlightAware Transoceanic
11:15PM 46.5665 -144.5370 279° West 528 608 31,000  Level FlightAware Transoceanic
11:16PM 46.5857 -144.6932 278° West 529 609 31,000  Level FlightAware Transoceanic
11:17PM 46.6069 -144.9037 278° West 529 609 31,000  Level FlightAware Transoceanic
11:18PM 46.6278 -145.1145 278° West 529 609 31,000  Level FlightAware Transoceanic
11:19PM 46.6483 -145.3254 278° West 529 609 31,000  Level FlightAware Transoceanic
11:20PM 46.6684 -145.5364 278° West 529 609 31,000  Level FlightAware Transoceanic
11:21PM 46.6881 -145.7476 278° West 529 609 31,000  Level FlightAware Transoceanic
11:22PM 46.7074 -145.9590 278° West 529 609 31,000  Level FlightAware Transoceanic
11:23PM 46.7263 -146.1705 277° West 529 609 31,000  Level FlightAware Transoceanic
11:24PM 46.7449 -146.3822 277° West 529 609 31,000  Level FlightAware Transoceanic
11:25PM 46.7630 -146.5940 277° West 529 609 31,000  Level FlightAware Transoceanic
11:26PM 46.7808 -146.8059 277° West 529 609 31,000  Level FlightAware Transoceanic
11:27PM 46.7982 -147.0180 277° West 529 609 31,000  Level FlightAware Transoceanic
11:28PM 46.8152 -147.2302 277° West 529 609 31,000  Level FlightAware Transoceanic
11:29PM 46.8317 -147.4426 276° West 529 609 31,000  Level FlightAware Transoceanic
11:30PM 46.8479 -147.6550 276° West 529 609 31,000  Level FlightAware Transoceanic
11:31PM 46.8637 -147.8676 276° West 529 609 31,000  Level FlightAware Transoceanic
11:32PM 46.8791 -148.0804 276° West 529 609 31,000  Level FlightAware Transoceanic
11:33PM 46.8941 -148.2932 276° West 529 609 31,000  Level FlightAware Transoceanic
11:34PM 46.9088 -148.5062 276° West 529 609 31,000  Level FlightAware Transoceanic
11:35PM 46.9230 -148.7193 276° West 529 609 31,000  Level FlightAware Transoceanic
11:36PM 46.9368 -148.9325 275° West 529 609 31,000 540 Level FlightAware Transoceanic
11:36PM 46.9500 -149.0667 275° West 531 611 32,000  Climbing Oakland Oceanic (ODAPS)
11:37PM 46.9502 -149.1458 275° West 529 609 31,000 -780 Descending FlightAware Transoceanic
11:38PM 46.9633 -149.3592 275° West 529 609 31,000  Level FlightAware Transoceanic
11:39PM 46.9759 -149.5727 275° West 529 609 31,000  Level FlightAware Transoceanic
11:40PM 46.9882 -149.7863 275° West 529 609 31,000  Level FlightAware Transoceanic
11:41PM 47.0000 -150.0000 274° West 529 609 31,000 780 Level FlightAware Transoceanic
11:41PM 47.0000 -150.0000 274° West 532 612 32,000 960 Climbing Oakland Oceanic (ODAPS)
11:42PM 47.0093 -150.2168 274° West 531 611 32,000  Level FlightAware Transoceanic
11:43PM 47.0181 -150.4337 273° West 531 611 32,000  Level FlightAware Transoceanic
11:44PM 47.0265 -150.6507 273° West 531 611 32,000  Level FlightAware Transoceanic
11:45PM 47.0346 -150.8678 273° West 531 611 32,000  Level FlightAware Transoceanic
11:46PM 47.0422 -151.0849 273° West 531 611 32,000  Level FlightAware Transoceanic
11:47PM 47.0494 -151.3021 273° West 532 612 32,000  Level FlightAware Transoceanic
11:48PM 47.0562 -151.5193 273° West 532 612 32,000  Level FlightAware Transoceanic
11:49PM 47.0626 -151.7366 272° West 532 612 32,000  Level FlightAware Transoceanic
11:50PM 47.0685 -151.9539 272° West 532 612 32,000  Level FlightAware Transoceanic
11:51PM 47.0741 -152.1713 272° West 532 612 32,000  Level FlightAware Transoceanic
11:52PM 47.0793 -152.3887 272° West 532 612 32,000  Level FlightAware Transoceanic
11:53PM 47.0840 -152.6062 272° West 532 612 32,000  Level FlightAware Transoceanic
11:54PM 47.0883 -152.8237 272° West 532 612 32,000  Level FlightAware Transoceanic
11:55PM 47.0922 -153.0412 271° West 532 612 32,000  Level FlightAware Transoceanic
11:56PM 47.0957 -153.2588 271° West 532 612 32,000  Level FlightAware Transoceanic
11:57PM 47.0988 -153.4764 271° West 532 612 32,000  Level FlightAware Transoceanic
11:58PM 47.1015 -153.6940 271° West 532 612 32,000  Level FlightAware Transoceanic
11:59PM 47.1038 -153.9116 271° West 532 612 32,000  Level FlightAware Transoceanic
12:00AM 47.1056 -154.1293 271° West 532 612 32,000  Level FlightAware Transoceanic
12:01AM 47.1071 -154.3470 270° West 532 612 32,000  Level FlightAware Transoceanic
12:02AM 47.1081 -154.5646 270° West 532 612 32,000  Level FlightAware Transoceanic
12:03AM 47.1087 -154.7823 270° West 532 612 32,000  Level FlightAware Transoceanic
12:03AM 47.1167 -154.8000 270° West 527 606 32,000  Level Oakland Oceanic (ODAPS)
12:04AM 47.1089 -155.0000 270° West 532 612 32,000  Level FlightAware Transoceanic
12:05AM 47.1087 -155.2177 270° West 532 612 32,000  Level FlightAware Transoceanic
12:06AM 47.1081 -155.4354 270° West 532 612 32,000  Level FlightAware Transoceanic
12:07AM 47.1071 -155.6530 270° West 532 612 32,000  Level FlightAware Transoceanic
12:08AM 47.1056 -155.8707 269° West 532 612 32,000  Level FlightAware Transoceanic
12:09AM 47.1101 -156.0497 269° West 527 606 32,000  Level FlightAware Transoceanic
12:10AM 47.1077 -156.2580 269° West 527 606 32,000  Level FlightAware Transoceanic
12:11AM 47.1050 -156.4662 269° West 527 606 32,000  Level FlightAware Transoceanic
12:12AM 47.1018 -156.6744 269° West 527 606 32,000  Level FlightAware Transoceanic
12:13AM 47.0983 -156.8826 268° West 527 606 32,000  Level FlightAware Transoceanic
12:14AM 47.0943 -157.0907 268° West 527 606 32,000  Level FlightAware Transoceanic
12:15AM 47.0900 -157.2988 268° West 527 606 32,000  Level FlightAware Transoceanic
12:16AM 47.0854 -157.5069 268° West 527 606 32,000  Level FlightAware Transoceanic
12:17AM 47.0803 -157.7149 268° West 527 606 32,000  Level FlightAware Transoceanic
12:18AM 47.0749 -157.9229 268° West 527 606 32,000  Level FlightAware Transoceanic
12:19AM 47.0691 -158.1309 268° West 527 606 32,000  Level FlightAware Transoceanic
12:20AM 47.0629 -158.3388 267° West 527 606 32,000  Level FlightAware Transoceanic
12:21AM 47.0564 -158.5466 267° West 527 606 32,000  Level FlightAware Transoceanic
12:22AM 47.0494 -158.7544 267° West 527 606 32,000  Level FlightAware Transoceanic
12:23AM 47.0421 -158.9622 267° West 527 606 32,000  Level FlightAware Transoceanic
12:24AM 47.0345 -159.1699 267° West 527 606 32,000  Level FlightAware Transoceanic
12:25AM 47.0264 -159.3775 267° West 527 606 32,000  Level FlightAware Transoceanic
12:26AM 47.0180 -159.5851 267° West 527 606 32,000  Level FlightAware Transoceanic
12:27AM 47.0092 -159.7926 266° West 527 606 32,000  Level FlightAware Transoceanic
12:28AM 47.0000 -160.0000 274° West 527 606 32,000  Level FlightAware Transoceanic
12:28AM 47.0000 -160.0000 274° West 511 588 32,000  Level Oakland Oceanic (ODAPS)
12:29AM 47.0089 -160.2078 274° West 527 606 32,000  Level FlightAware Transoceanic
12:30AM 47.0174 -160.4157 273° West 527 606 32,000  Level FlightAware Transoceanic
12:30AM 47.0167 -160.3667 273° West 505 581 32,000  Level Oakland Oceanic (ODAPS)
12:31AM 47.0255 -160.6236 273° West 527 606 32,000  Level FlightAware Transoceanic
12:32AM 47.0333 -160.8316 273° West 527 606 32,000  Level FlightAware Transoceanic
12:33AM 47.0406 -161.0397 273° West 527 606 32,000  Level FlightAware Transoceanic
12:34AM 47.0476 -161.2478 273° West 511 588 32,000  Level FlightAware Transoceanic
12:35AM 47.0542 -161.4559 273° West 511 588 32,000  Level FlightAware Transoceanic
12:36AM 47.0595 -161.5948 272° West 505 581 32,000  Level FlightAware Transoceanic
12:37AM 47.0654 -161.7996 272° West 505 581 32,000  Level FlightAware Transoceanic
12:38AM 47.0709 -162.0045 272° West 505 581 32,000  Level FlightAware Transoceanic
12:39AM 47.0761 -162.2095 272° West 505 581 32,000  Level FlightAware Transoceanic
12:40AM 47.0808 -162.4145 272° West 505 581 32,000  Level FlightAware Transoceanic
12:41AM 47.0852 -162.6195 272° West 505 581 32,000  Level FlightAware Transoceanic
12:42AM 47.0893 -162.8246 272° West 505 581 32,000  Level FlightAware Transoceanic
12:43AM 47.0929 -163.0296 271° West 505 581 32,000  Level FlightAware Transoceanic
12:44AM 47.0963 -163.2347 271° West 505 581 32,000  Level FlightAware Transoceanic
12:45AM 47.0992 -163.4399 271° West 505 581 32,000  Level FlightAware Transoceanic
12:46AM 47.1018 -163.6450 271° West 505 581 32,000  Level FlightAware Transoceanic
12:47AM 47.1040 -163.8502 271° West 505 581 32,000  Level FlightAware Transoceanic
12:48AM 47.1058 -164.0554 271° West 505 581 32,000  Level FlightAware Transoceanic
12:49AM 47.1073 -164.2606 271° West 505 581 32,000  Level FlightAware Transoceanic
12:50AM 47.1084 -164.4658 270° West 505 581 32,000  Level FlightAware Transoceanic
12:51AM 47.1092 -164.6710 270° West 505 581 32,000  Level FlightAware Transoceanic
12:52AM 47.1095 -164.8763 270° West 505 581 32,000  Level FlightAware Transoceanic
12:53AM 47.1096 -165.0815 270° West 505 581 32,000  Level FlightAware Transoceanic
12:54AM 47.1092 -165.2867 270° West 505 581 32,000  Level FlightAware Transoceanic
12:55AM 47.1085 -165.4919 270° West 505 581 32,000  Level FlightAware Transoceanic
12:56AM 47.1074 -165.6971 269° West 505 581 32,000  Level FlightAware Transoceanic
12:56AM 47.1000 -165.7500 270° West 482 555 32,000  Level Oakland Oceanic (ODAPS)
12:57AM 47.1059 -165.9023 269° West 505 581 32,000  Level FlightAware Transoceanic
12:58AM 47.1041 -166.1075 269° West 505 581 32,000  Level FlightAware Transoceanic
12:59AM 47.1019 -166.3127 269° West 505 581 32,000  Level FlightAware Transoceanic
01:00AM 47.0994 -166.5179 269° West 505 581 32,000  Level FlightAware Transoceanic
01:01AM 47.0965 -166.7230 269° West 505 581 32,000  Level FlightAware Transoceanic
01:02AM 47.0932 -166.9281 269° West 505 581 32,000  Level FlightAware Transoceanic
01:03AM 47.0875 -166.9657 269° West 482 555 32,000  Level FlightAware Transoceanic
01:04AM 47.0841 -167.1683 269° West 482 555 32,000  Level FlightAware Transoceanic
01:05AM 47.0804 -167.3708 268° West 482 555 32,000  Level FlightAware Transoceanic
01:06AM 47.0764 -167.5733 268° West 482 555 32,000  Level FlightAware Transoceanic
01:07AM 47.0720 -167.7758 268° West 482 555 32,000  Level FlightAware Transoceanic
01:08AM 47.0672 -167.9782 268° West 482 555 32,000  Level FlightAware Transoceanic
01:09AM 47.0621 -168.1806 268° West 482 555 32,000  Level FlightAware Transoceanic
01:10AM 47.0566 -168.3829 268° West 482 555 32,000  Level FlightAware Transoceanic
01:11AM 47.0508 -168.5853 268° West 482 555 32,000  Level FlightAware Transoceanic
01:12AM 47.0446 -168.7875 267° West 482 555 32,000  Level FlightAware Transoceanic
01:13AM 47.0381 -168.9897 267° West 482 555 32,000  Level FlightAware Transoceanic
01:14AM 47.0312 -169.1919 267° West 482 555 32,000  Level FlightAware Transoceanic
01:15AM 47.0239 -169.3940 267° West 482 555 32,000  Level FlightAware Transoceanic
01:16AM 47.0163 -169.5961 267° West 482 555 32,000  Level FlightAware Transoceanic
01:17AM 47.0083 -169.7981 267° West 482 555 32,000  Level FlightAware Transoceanic
01:18AM 47.0000 -170.0000 274° West 482 555 32,000  Level FlightAware Transoceanic
01:19AM 47.0084 -170.1956 274° West 482 555 32,000 1,140 Level FlightAware Transoceanic
01:19AM 47.0000 -170.0000 274° West 474 545 33,300  Climbing Oakland Oceanic (ODAPS)
01:20AM 47.0164 -170.3912 273° West 482 555 32,000 -720 Descending FlightAware Transoceanic
01:21AM 47.0241 -170.5869 273° West 482 555 32,000  Level FlightAware Transoceanic
01:22AM 47.0315 -170.7827 273° West 482 555 32,000  Level FlightAware Transoceanic
01:23AM 47.0385 -170.9785 273° West 482 555 32,000 1,020 Level FlightAware Transoceanic
01:23AM 47.0333 -170.8667 273° West 464 534 33,400  Climbing Oakland Oceanic (ODAPS)
01:24AM 47.0452 -171.1743 273° West 482 555 32,000 -120 Descending FlightAware Transoceanic
01:25AM 47.0444 -171.1517 273° West 474 545 33,300 600 Climbing FlightAware Transoceanic
01:26AM 47.0507 -171.3438 273° West 474 545 33,300  Level FlightAware Transoceanic
01:27AM 47.0567 -171.5360 273° West 474 545 33,300  Level FlightAware Transoceanic
01:28AM 47.0623 -171.7282 272° West 474 545 33,300  Level FlightAware Transoceanic
01:29AM 47.0683 -171.9840 272° West 464 534 33,400  Climbing FlightAware Transoceanic
01:30AM 47.0731 -172.1703 272° West 464 534 33,400  Level FlightAware Transoceanic
01:31AM 47.0775 -172.3567 272° West 464 534 33,400  Level FlightAware Transoceanic
01:32AM 47.0817 -172.5431 272° West 464 534 33,400  Level FlightAware Transoceanic
01:33AM 47.0855 -172.7295 272° West 464 534 33,400  Level FlightAware Transoceanic
01:34AM 47.0891 -172.9160 272° West 464 534 33,400  Level FlightAware Transoceanic
01:35AM 47.0924 -173.1025 271° West 464 534 33,400  Level FlightAware Transoceanic
01:36AM 47.0953 -173.2890 271° West 464 534 33,400  Level FlightAware Transoceanic
01:37AM 47.0980 -173.4755 271° West 464 534 33,400  Level FlightAware Transoceanic
01:38AM 47.1003 -173.6621 271° West 464 534 33,400  Level FlightAware Transoceanic
01:39AM 47.1024 -173.8486 271° West 464 534 33,400  Level FlightAware Transoceanic
01:40AM 47.1041 -174.0352 271° West 464 534 33,400  Level FlightAware Transoceanic
01:41AM 47.1055 -174.2218 271° West 464 534 33,400  Level FlightAware Transoceanic
01:42AM 47.1067 -174.4084 270° West 464 534 33,400  Level FlightAware Transoceanic
01:43AM 47.1075 -174.5950 270° West 464 534 33,400  Level FlightAware Transoceanic
01:44AM 47.1081 -174.7816 270° West 464 534 33,400  Level FlightAware Transoceanic
01:45AM 47.1083 -174.9682 270° West 464 534 33,400  Level FlightAware Transoceanic
01:46AM 47.1082 -175.1548 270° West 464 534 33,400  Level FlightAware Transoceanic
01:47AM 47.1078 -175.3415 270° West 464 534 33,400  Level FlightAware Transoceanic
01:48AM 47.1071 -175.5281 270° West 464 534 33,400  Level FlightAware Transoceanic
01:49AM 47.1062 -175.7147 269° West 464 534 33,400  Level FlightAware Transoceanic
01:50AM 47.1049 -175.9013 269° West 464 534 33,400 240 Level FlightAware Transoceanic
01:50AM 47.1000 -175.9000 269° West 463 533 33,700  Climbing Oakland Oceanic (ODAPS)
01:51AM 47.1033 -176.0878 269° West 464 534 33,400 -180 Descending FlightAware Transoceanic
01:52AM 47.1014 -176.2744 269° West 464 534 33,400  Level FlightAware Transoceanic
01:53AM 47.0992 -176.4610 269° West 464 534 33,400  Level FlightAware Transoceanic
01:54AM 47.0967 -176.6475 269° West 464 534 33,400  Level FlightAware Transoceanic
01:55AM 47.0939 -176.8340 269° West 464 534 33,400 120 Level FlightAware Transoceanic
01:56AM 47.0872 -177.0195 269° West 463 533 33,700 120 Climbing FlightAware Transoceanic
01:57AM 47.0841 -177.2061 268° West 463 533 33,700  Level FlightAware Transoceanic
01:58AM 47.0806 -177.3926 268° West 463 533 33,700  Level FlightAware Transoceanic
01:59AM 47.0768 -177.5791 268° West 463 533 33,700  Level FlightAware Transoceanic
02:00AM 47.0727 -177.7655 268° West 463 533 33,700  Level FlightAware Transoceanic
02:01AM 47.0683 -177.9519 268° West 463 533 33,700  Level FlightAware Transoceanic
02:02AM 47.0636 -178.1383 268° West 463 533 33,700  Level FlightAware Transoceanic
02:03AM 47.0586 -178.3247 268° West 463 533 33,700  Level FlightAware Transoceanic
02:04AM 47.0533 -178.5110 268° West 463 533 33,700  Level FlightAware Transoceanic
02:05AM 47.0477 -178.6973 267° West 463 533 33,700  Level FlightAware Transoceanic
02:06AM 47.0418 -178.8835 267° West 463 533 33,700  Level FlightAware Transoceanic
02:07AM 47.0356 -179.0697 267° West 463 533 33,700  Level FlightAware Transoceanic
02:08AM 47.0291 -179.2559 267° West 463 533 33,700  Level FlightAware Transoceanic
02:09AM 47.0223 -179.4420 267° West 463 533 33,700  Level FlightAware Transoceanic
02:10AM 47.0151 -179.6280 267° West 463 533 33,700  Level FlightAware Transoceanic
02:11AM 47.0077 -179.8140 267° West 463 533 33,700 120 Level FlightAware Transoceanic
02:11AM 47.0000 180.0000 258° West 470 541 34,000  Climbing Oakland Oceanic (ODAPS)
02:12AM 47.0000 -180.0000 258° West 463 533 33,700 -240 Descending FlightAware Transoceanic
02:13AM 46.9700 179.8012 257° West 463 533 33,700  Level FlightAware Transoceanic
02:14AM 46.9396 179.6026 257° West 463 533 33,700  Level FlightAware Transoceanic
02:15AM 46.9088 179.4043 257° West 463 533 33,700  Level FlightAware Transoceanic
02:16AM 46.8778 179.2062 257° West 463 533 33,700 180 Level FlightAware Transoceanic
02:16AM 46.8500 179.0500 257° West 467 537 34,100 300 Climbing Oakland Oceanic (ODAPS)
02:17AM 46.8282 178.8953 257° West 470 541 34,000 -120 Descending FlightAware Transoceanic
02:18AM 46.7986 178.7119 257° West 470 541 34,000  Level FlightAware Transoceanic
02:19AM 46.7686 178.5287 257° West 470 541 34,000  Level FlightAware Transoceanic
02:20AM 46.7384 178.3457 256° West 470 541 34,000  Level FlightAware Transoceanic
02:21AM 46.7078 178.1629 256° West 470 541 34,000  Level FlightAware Transoceanic
02:22AM 46.6770 177.9803 256° West 470 541 34,000  Level FlightAware Transoceanic
02:23AM 46.6664 177.9332 256° West 467 537 34,100  Climbing FlightAware Transoceanic
02:24AM 46.6347 177.7478 256° West 467 537 34,100  Level FlightAware Transoceanic
02:25AM 46.6027 177.5626 256° West 467 537 34,100  Level FlightAware Transoceanic
02:26AM 46.5705 177.3776 256° West 467 537 34,100  Level FlightAware Transoceanic
02:27AM 46.5379 177.1929 256° West 467 537 34,100  Level FlightAware Transoceanic
02:28AM 46.5051 177.0084 255° West 467 537 34,100  Level FlightAware Transoceanic
02:29AM 46.4719 176.8241 255° West 467 537 34,100  Level FlightAware Transoceanic
02:30AM 46.4385 176.6400 255° West 467 537 34,100  Level FlightAware Transoceanic
02:31AM 46.4048 176.4562 255° West 467 537 34,100  Level FlightAware Transoceanic
02:32AM 46.3707 176.2726 255° West 467 537 34,100  Level FlightAware Transoceanic
02:33AM 46.3364 176.0892 255° West 467 537 34,100  Level FlightAware Transoceanic
02:34AM 46.3018 175.9061 255° West 467 537 34,100  Level FlightAware Transoceanic
02:35AM 46.2668 175.7232 254° West 467 537 34,100  Level FlightAware Transoceanic
02:36AM 46.2317 175.5405 254° West 467 537 34,100  Level FlightAware Transoceanic
02:37AM 46.1962 175.3580 254° West 467 537 34,100  Level FlightAware Transoceanic
02:38AM 46.1604 175.1758 254° West 467 537 34,100  Level FlightAware Transoceanic
02:39AM 46.1243 174.9939 254° West 467 537 34,100  Level FlightAware Transoceanic
02:40AM 46.0879 174.8121 254° West 467 537 34,100  Level FlightAware Transoceanic
02:41AM 46.0513 174.6306 254° West 467 537 34,100  Level FlightAware Transoceanic
02:42AM 46.0144 174.4494 254° West 467 537 34,100  Level FlightAware Transoceanic
02:43AM 45.9771 174.2684 253° West 467 537 34,100 180 Level FlightAware Transoceanic
02:43AM 45.9667 174.1833 253° West 477 549 34,400  Climbing Oakland Oceanic (ODAPS)
02:44AM 45.9396 174.0876 253° West 467 537 34,100 -240 Descending FlightAware Transoceanic
02:45AM 45.9018 173.9071 253° West 467 537 34,100  Level FlightAware Transoceanic
02:46AM 45.8638 173.7268 253° West 467 537 34,100  Level FlightAware Transoceanic
02:47AM 45.8254 173.5468 253° West 467 537 34,100  Level FlightAware Transoceanic
02:48AM 45.7868 173.3670 253° West 467 537 34,100  Level FlightAware Transoceanic
02:49AM 45.7478 173.1875 253° West 467 537 34,100 120 Level FlightAware Transoceanic
02:50AM 45.7006 172.9485 252° West 477 549 34,400 120 Climbing FlightAware Transoceanic
02:51AM 45.6615 172.7730 252° West 477 549 34,400  Level FlightAware Transoceanic
02:52AM 45.6221 172.5978 252° West 477 549 34,400  Level FlightAware Transoceanic
02:53AM 45.5825 172.4229 252° West 477 549 34,400  Level FlightAware Transoceanic
02:54AM 45.5426 172.2482 252° West 477 549 34,400  Level FlightAware Transoceanic
02:55AM 45.5024 172.0737 252° West 477 549 34,400  Level FlightAware Transoceanic
02:56AM 45.4620 171.8995 252° West 477 549 34,400  Level FlightAware Transoceanic
02:57AM 45.4213 171.7256 251° West 477 549 34,400  Level FlightAware Transoceanic
02:58AM 45.3803 171.5519 251° West 477 549 34,400  Level FlightAware Transoceanic
02:59AM 45.3391 171.3784 251° West 477 549 34,400  Level FlightAware Transoceanic
03:00AM 45.2976 171.2052 251° West 477 549 34,400  Level FlightAware Transoceanic
03:01AM 45.2559 171.0323 251° West 477 549 34,400  Level FlightAware Transoceanic
03:02AM 45.2139 170.8596 251° West 477 549 34,400  Level FlightAware Transoceanic
03:03AM 45.1716 170.6871 251° West 477 549 34,400  Level FlightAware Transoceanic
03:04AM 45.1291 170.5150 251° West 477 549 34,400  Level FlightAware Transoceanic
03:05AM 45.0863 170.3431 251° West 477 549 34,400  Level FlightAware Transoceanic
03:06AM 45.0433 170.1714 250° West 477 549 34,400 240 Level FlightAware Transoceanic
03:06AM 45.0000 170.0000 251° West 495 570 34,700  Climbing Oakland Oceanic (ODAPS)
03:07AM 45.0000 170.0000 251° West 477 549 34,400 -180 Descending FlightAware Transoceanic
03:08AM 44.9526 169.8059 251° West 477 549 34,400  Level FlightAware Transoceanic
03:09AM 44.9049 169.6122 251° West 477 549 34,400  Level FlightAware Transoceanic
03:10AM 44.8569 169.4187 251° West 477 549 34,400 240 Level FlightAware Transoceanic
03:10AM 44.8000 169.2167 251° West 496 571 34,700  Climbing Oakland Oceanic (ODAPS)
03:11AM 44.8086 169.2256 250° West 477 549 34,400  Descending FlightAware Transoceanic
03:12AM 44.7264 168.9011 250° West 495 570 34,700 120 Climbing FlightAware Transoceanic
03:13AM 44.6798 168.7190 250° West 495 570 34,700  Level FlightAware Transoceanic
03:14AM 44.6328 168.5371 250° West 495 570 34,700  Level FlightAware Transoceanic
03:15AM 44.5856 168.3556 250° West 495 570 34,700  Level FlightAware Transoceanic
03:16AM 44.5211 168.1309 250° West 496 571 34,700  Level FlightAware Transoceanic
03:17AM 44.4736 167.9510 250° West 496 571 34,700  Level FlightAware Transoceanic
03:18AM 44.4259 167.7713 250° West 496 571 34,700  Level FlightAware Transoceanic
03:19AM 44.3778 167.5920 249° West 496 571 34,700  Level FlightAware Transoceanic
03:20AM 44.3295 167.4129 249° West 496 571 34,700  Level FlightAware Transoceanic
03:21AM 44.2809 167.2341 249° West 496 571 34,700  Level FlightAware Transoceanic
03:22AM 44.2320 167.0557 249° West 496 571 34,700  Level FlightAware Transoceanic
03:23AM 44.1829 166.8775 249° West 496 571 34,700  Level FlightAware Transoceanic
03:24AM 44.1334 166.6996 249° West 496 571 34,700  Level FlightAware Transoceanic
03:25AM 44.0837 166.5221 249° West 496 571 34,700  Level FlightAware Transoceanic
03:26AM 44.0337 166.3448 249° West 496 571 34,700  Level FlightAware Transoceanic
03:27AM 43.9835 166.1678 248° West 496 571 34,700  Level FlightAware Transoceanic
03:28AM 43.9329 165.9911 248° West 496 571 34,700  Level FlightAware Transoceanic
03:29AM 43.8821 165.8148 248° West 496 571 34,700  Level FlightAware Transoceanic
03:30AM 43.8311 165.6387 248° West 496 571 34,700  Level FlightAware Transoceanic
03:31AM 43.7797 165.4629 248° West 496 571 34,700  Level FlightAware Transoceanic
03:32AM 43.7281 165.2874 248° West 496 571 34,700  Level FlightAware Transoceanic
03:33AM 43.6763 165.1123 248° West 496 571 34,700  Level FlightAware Transoceanic
03:34AM 43.6241 164.9374 248° West 496 571 34,700  Level FlightAware Transoceanic
03:35AM 43.5717 164.7629 247° West 496 571 34,700  Level FlightAware Transoceanic
03:36AM 43.5190 164.5886 247° West 496 571 34,700  Level FlightAware Transoceanic
03:37AM 43.4661 164.4147 247° West 496 571 34,700  Level FlightAware Transoceanic
03:38AM 43.4129 164.2410 247° West 496 571 34,700  Level FlightAware Transoceanic
03:39AM 43.3594 164.0677 247° West 496 571 34,700  Level FlightAware Transoceanic
03:40AM 43.3057 163.8947 247° West 496 571 34,700  Level FlightAware Transoceanic
03:41AM 43.2517 163.7219 247° West 496 571 34,700  Level FlightAware Transoceanic
03:42AM 43.1974 163.5495 247° West 496 571 34,700  Level FlightAware Transoceanic
03:43AM 43.1429 163.3774 246° West 496 571 34,700  Level FlightAware Transoceanic
03:44AM 43.0882 163.2056 246° West 496 571 34,700  Level FlightAware Transoceanic
03:45AM 43.0331 163.0341 246° West 496 571 34,700  Level FlightAware Transoceanic
03:46AM 42.9779 162.8629 246° West 496 571 34,700  Level FlightAware Transoceanic
03:47AM 42.9223 162.6920 246° West 496 571 34,700  Level FlightAware Transoceanic
03:48AM 42.8666 162.5215 246° West 496 571 34,700  Level FlightAware Transoceanic
03:49AM 42.8105 162.3512 246° West 496 571 34,700  Level FlightAware Transoceanic
03:50AM 42.7542 162.1812 246° West 496 571 34,700  Level FlightAware Transoceanic
03:51AM 42.6977 162.0116 246° West 496 571 34,700  Level FlightAware Transoceanic
03:52AM 42.6409 161.8422 245° Southwest 496 571 34,700  Level FlightAware Transoceanic
03:53AM 42.5839 161.6732 245° Southwest 496 571 34,700  Level FlightAware Transoceanic
03:54AM 42.5266 161.5045 245° Southwest 496 571 34,700  Level FlightAware Transoceanic
03:55AM 42.4691 161.3361 245° Southwest 496 571 34,700  Level FlightAware Transoceanic
03:56AM 42.4113 161.1680 245° Southwest 496 571 34,700  Level FlightAware Transoceanic
03:57AM 42.3532 161.0002 245° Southwest 496 571 34,700  Level FlightAware Transoceanic
03:58AM 42.2950 160.8327 245° Southwest 496 571 34,700  Level FlightAware Transoceanic
03:59AM 42.2365 160.6656 245° Southwest 496 571 34,700  Level FlightAware Transoceanic
04:00AM 42.1777 160.4987 245° Southwest 496 571 34,700  Level FlightAware Transoceanic
04:01AM 42.1187 160.3322 244° Southwest 496 571 34,700  Level FlightAware Transoceanic
04:02AM 42.0595 160.1659 244° Southwest 496 571 34,700  Level FlightAware Transoceanic
04:03AM 42.0000 160.0000 253° West 496 571 34,700  Level FlightAware Transoceanic
04:04AM 41.9579 159.8143 253° West 496 571 34,700  Level FlightAware Transoceanic
04:05AM 41.9155 159.6289 253° West 496 571 34,700  Level FlightAware Transoceanic
04:06AM 41.8729 159.4437 253° West 496 571 34,700  Level FlightAware Transoceanic
04:07AM 41.8299 159.2588 253° West 496 571 34,700  Level FlightAware Transoceanic
04:08AM 41.7866 159.0741 252° West 496 571 34,700  Level FlightAware Transoceanic
04:09AM 41.7430 158.8897 252° West 496 571 34,700  Level FlightAware Transoceanic
04:10AM 41.6992 158.7055 252° West 496 571 34,700  Level FlightAware Transoceanic
04:11AM 41.6550 158.5216 252° West 496 571 34,700  Level FlightAware Transoceanic
04:12AM 41.6106 158.3379 252° West 496 571 34,700  Level FlightAware Transoceanic
04:13AM 41.5658 158.1545 252° West 496 571 34,700  Level FlightAware Transoceanic
04:14AM 41.5208 157.9714 252° West 496 571 34,700  Level FlightAware Transoceanic
04:15AM 41.4755 157.7885 252° West 496 571 34,700  Level FlightAware Transoceanic
04:16AM 41.4299 157.6058 252° West 496 571 34,700  Level FlightAware Transoceanic
04:17AM 41.3840 157.4234 251° West 496 571 34,700  Level FlightAware Transoceanic
04:18AM 41.3378 157.2413 251° West 496 571 34,700  Level FlightAware Transoceanic
04:19AM 41.2913 157.0594 251° West 496 571 34,700  Level FlightAware Transoceanic
04:20AM 41.2445 156.8778 251° West 496 571 34,700  Level FlightAware Transoceanic
04:21AM 41.1975 156.6964 251° West 496 571 34,700  Level FlightAware Transoceanic
04:22AM 41.1502 156.5153 251° West 496 571 34,700  Level FlightAware Transoceanic
04:23AM 41.1026 156.3345 251° West 496 571 34,700  Level FlightAware Transoceanic
04:24AM 41.0547 156.1539 251° West 496 571 34,700  Level FlightAware Transoceanic
04:25AM 41.0065 155.9736 250° West 496 571 34,700  Level FlightAware Transoceanic
04:26AM 40.9580 155.7936 250° West 496 571 34,700  Level FlightAware Transoceanic
04:27AM 40.9093 155.6138 250° West 496 571 34,700  Level FlightAware Transoceanic
04:28AM 40.8603 155.4343 250° West 496 571 34,700  Level FlightAware Transoceanic
04:29AM 40.8110 155.2550 250° West 496 571 34,700  Level FlightAware Transoceanic
04:30AM 40.7614 155.0761 250° West 496 571 34,700  Level FlightAware Transoceanic
04:31AM 40.7116 154.8974 250° West 496 571 34,700  Level FlightAware Transoceanic
04:32AM 40.6614 154.7189 250° West 496 571 34,700  Level FlightAware Transoceanic
04:33AM 40.6110 154.5407 250° West 496 571 34,700  Level FlightAware Transoceanic
04:34AM 40.5604 154.3628 249° West 496 571 34,700  Level FlightAware Transoceanic
04:35AM 40.5094 154.1852 249° West 496 571 34,700  Level FlightAware Transoceanic
04:36AM 40.4582 154.0078 249° West 496 571 34,700  Level FlightAware Transoceanic
04:37AM 40.4067 153.8307 249° West 496 571 34,700  Level FlightAware Transoceanic
04:38AM 40.3550 153.6539 249° West 496 571 34,700  Level FlightAware Transoceanic
04:39AM 40.3030 153.4774 249° West 496 571 34,700  Level FlightAware Transoceanic
04:40AM 40.2507 153.3011 249° West 496 571 34,700  Level FlightAware Transoceanic
04:41AM 40.1981 153.1251 249° West 496 571 34,700  Level FlightAware Transoceanic
04:42AM 40.1453 152.9493 248° West 496 571 34,700  Level FlightAware Transoceanic
04:43AM 40.0922 152.7739 248° West 496 571 34,700  Level FlightAware Transoceanic
04:44AM 40.0388 152.5987 248° West 496 571 34,700  Level FlightAware Transoceanic
04:45AM 39.9852 152.4238 248° West 496 571 34,700  Level FlightAware Transoceanic
04:46AM 39.9314 152.2492 248° West 496 571 34,700  Level FlightAware Transoceanic
04:47AM 39.8772 152.0748 248° West 496 571 34,700  Level FlightAware Transoceanic
04:48AM 39.8228 151.9007 248° West 496 571 34,700  Level FlightAware Transoceanic
04:49AM 39.7682 151.7269 248° West 496 571 34,700  Level FlightAware Transoceanic
04:50AM 39.7132 151.5534 248° West 496 571 34,700  Level FlightAware Transoceanic
04:51AM 39.6581 151.3801 247° West 496 571 34,700  Level FlightAware Transoceanic
04:52AM 39.6026 151.2071 247° West 496 571 34,700  Level FlightAware Transoceanic
04:53AM 39.5469 151.0344 247° West 496 571 34,700  Level FlightAware Transoceanic
04:54AM 39.4910 150.8620 247° West 496 571 34,700  Level FlightAware Transoceanic
04:55AM 39.4348 150.6899 247° West 496 571 34,700  Level FlightAware Transoceanic
04:56AM 39.3783 150.5180 247° West 496 571 34,700  Level FlightAware Transoceanic
04:57AM 39.3216 150.3464 247° West 496 571 34,700  Level FlightAware Transoceanic
04:58AM 39.2647 150.1751 247° West 496 571 34,700  Level FlightAware Transoceanic
04:59AM 39.2075 150.0041 247° West 496 571 34,700  Level FlightAware Transoceanic
05:00AM 39.1578 149.8419 248° West  Level FlightAware Approximate
05:01AM 39.1078 149.6800 248° West  Level FlightAware Approximate
05:02AM 39.0979 149.6990 240° Southwest  Level FlightAware Approximate
05:03AM 39.0307 149.5480 240° Southwest  Level FlightAware Approximate
05:04AM 38.9634 149.3972 240° Southwest  Level FlightAware Approximate
05:05AM 38.8958 149.2467 240° Southwest  Level FlightAware Approximate
05:06AM 38.8280 149.0965 240° Southwest  Level FlightAware Approximate
05:07AM 38.7601 148.9465 240° Southwest  Level FlightAware Approximate
05:08AM 38.6919 148.7969 240° Southwest  Level FlightAware Approximate
05:09AM 38.6236 148.6475 240° Southwest  Level FlightAware Approximate
05:10AM 38.5551 148.4985 240° Southwest  Level FlightAware Approximate
05:11AM 38.4864 148.3497 239° Southwest  Level FlightAware Approximate
05:12AM 38.4175 148.2012 239° Southwest  Level FlightAware Approximate
05:13AM 38.3484 148.0529 239° Southwest  Level FlightAware Approximate
05:14AM 38.2791 147.9050 239° Southwest  Level FlightAware Approximate
05:15AM 38.2097 147.7574 239° Southwest  Level FlightAware Approximate
05:16AM 38.1400 147.6100 239° Southwest  Level FlightAware Approximate
05:17AM 38.0702 147.4629 239° Southwest  Level FlightAware Approximate
05:18AM 38.0002 147.3161 239° Southwest  Level FlightAware Approximate
05:19AM 37.9300 147.1696 239° Southwest  Level FlightAware Approximate
05:20AM 37.8596 147.0233 239° Southwest  Level FlightAware Approximate
05:21AM 37.7891 146.8773 239° Southwest  Level FlightAware Approximate
05:22AM 37.7183 146.7316 238° Southwest  Level FlightAware Approximate
05:23AM 37.6474 146.5862 238° Southwest  Level FlightAware Approximate
05:24AM 37.5764 146.4411 238° Southwest  Level FlightAware Approximate
05:25AM 37.5051 146.2962 238° Southwest  Level FlightAware Approximate
05:26AM 37.4336 146.1517 238° Southwest  Level FlightAware Approximate
05:27AM 37.3620 146.0073 238° Southwest  Level FlightAware Approximate
05:28AM 37.2902 145.8633 238° Southwest  Level FlightAware Approximate
05:29AM 37.2183 145.7195 238° Southwest  Level FlightAware Approximate
05:30AM 37.1744 145.5632 263° West  Level FlightAware Approximate
05:31AM 37.1569 145.3951 263° West  Level FlightAware Approximate
05:32AM 37.1391 145.2269 262° West  Level FlightAware Approximate
05:32AM 37.1860 145.6380 262° West 469 540 36,000  Level FlightAware
05:32AM 37.1820 145.5300 267° West 36,000  Level FlightAware
05:34AM 37.1470 145.2090 262° West 458 527 36,000  Level FlightAware
05:35AM 37.1350 145.1050 262° West 457 526 36,000  Level FlightAware
05:36AM 37.1230 145.0010 262° West 460 529 36,000  Level FlightAware
05:36AM 37.1110 144.8970 262° West 460 529 36,000  Level FlightAware
05:37AM 37.0970 144.7770 262° West 459 528 36,000  Level FlightAware
05:38AM 37.0850 144.6720 262° West 460 529 36,000  Level FlightAware
05:38AM 37.0710 144.5530 262° West 461 531 36,000  Level FlightAware
05:39AM 37.0580 144.4480 261° West 460 529 36,000  Level FlightAware
05:40AM 37.0460 144.3430 262° West 459 528 36,000  Level FlightAware
05:41AM 37.0320 144.2340 261° West 457 526 36,000  Level FlightAware
05:41AM 37.0170 144.1070 262° West 458 527 36,000  Level FlightAware
05:42AM 37.0060 144.0170 261° West 457 526 36,000  Level FlightAware
05:43AM 36.9970 143.8980 265° West 456 525 36,000  Level FlightAware
05:43AM 36.9910 143.7790 266° West 455 524 36,000  Level FlightAware
05:44AM 36.9870 143.7000 266° West 456 525 36,000  Level FlightAware
05:45AM 36.9770 143.5350 266° West 455 524 36,000  Level FlightAware
05:46AM 36.9680 143.3870 266° West 454 522 36,000  Level FlightAware
05:47AM 36.9610 143.2700 266° West 453 521 36,000  Level FlightAware
05:47AM 36.9560 143.1910 265° West 452 520 36,000  Level FlightAware
05:48AM 36.9490 143.0750 266° West 451 519 36,000  Level FlightAware
05:49AM 36.9420 142.9710 265° West 450 518 36,000  Level FlightAware
05:49AM 36.9360 142.8670 266° West 450 518 36,000  Level FlightAware
05:50AM 36.9290 142.7720 265° West 450 518 36,000  Level FlightAware
05:51AM 36.9220 142.6630 265° West 448 516 36,000  Level FlightAware
05:51AM 36.9140 142.5450 265° West 449 517 36,000  Level FlightAware
05:52AM 36.9070 142.4410 265° West 448 516 36,000  Level FlightAware
05:53AM 36.8970 142.3400 263° West 448 516 36,000  Level FlightAware
05:53AM 36.8730 142.2270 255° West 448 516 36,000  Level FlightAware
05:54AM 36.8510 142.1390 253° West 448 516 36,000  Level FlightAware
05:55AM 36.8270 142.0420 253° West 446 513 36,000  Level FlightAware
05:55AM 36.7990 141.9320 252° West 443 510 36,000  Level FlightAware
05:56AM 36.7680 141.8100 252° West 441 507 36,000  Level FlightAware
05:57AM 36.7430 141.7130 252° West 442 509 36,000  Level FlightAware
05:58AM 36.7170 141.6160 252° West 444 511 36,000  Level FlightAware
05:58AM 36.6890 141.5050 253° West 444 511 36,000  Level FlightAware
05:59AM 36.6630 141.4070 252° West 445 512 36,000  Level FlightAware
06:00AM 36.6340 141.2980 252° West 445 512 36,000  Level FlightAware
06:00AM 36.6090 141.2000 252° West 446 513 36,000  Level FlightAware
06:01AM 36.5790 141.0900 251° West 447 514 36,000  Level FlightAware
06:02AM 36.5530 140.9910 252° West 449 517 36,000  Level FlightAware
06:02AM 36.5270 140.8920 252° West 450 518 36,000  Level FlightAware
06:03AM 36.4970 140.7810 251° West 453 521 36,000  Level FlightAware
06:04AM 36.4710 140.6830 252° West 453 521 36,000  Level FlightAware
06:05AM 36.4440 140.5850 251° West 452 520 36,000  Level FlightAware
06:05AM 36.4140 140.4740 251° West 453 521 36,000  Level FlightAware
06:06AM 36.3890 140.3790 252° West 455 524 36,000  Level FlightAware
06:07AM 36.3580 140.2650 251° West 454 522 36,000  Level FlightAware
06:07AM 36.3320 140.1660 252° West 454 522 36,000  Level FlightAware
06:08AM 36.3050 140.0680 251° West 454 522 36,000  Level FlightAware
06:09AM 36.2760 139.9690 250° West 457 526 36,000  Level FlightAware
06:09AM 36.2320 139.8580 244° Southwest 459 528 36,000  Level FlightAware
06:10AM 36.1870 139.7520 242° Southwest 460 529 36,000  Level FlightAware
06:11AM 36.1440 139.6520 242° Southwest 459 528 36,000  Level FlightAware
06:12AM 36.1130 139.5790 242° Southwest 461 531 36,000  Level FlightAware
06:12AM 36.0720 139.4820 242° Southwest 458 527 36,000  Level FlightAware
06:13AM 36.0280 139.3790 242° Southwest 456 525 36,000 180 Level FlightAware
06:14AM 35.9890 139.2890 242° Southwest 456 525 36,300 780 Climbing FlightAware
06:14AM 35.9440 139.1850 242° Southwest 457 526 37,100 1,020 Climbing FlightAware
06:15AM 35.9050 139.0940 242° Southwest 456 525 37,800 600 Climbing FlightAware
06:16AM 35.8610 138.9920 242° Southwest 456 525 38,000 120 Climbing FlightAware
06:16AM 35.8170 138.8930 241° Southwest 455 524 38,000  Level FlightAware
06:17AM 35.7890 138.8280 242° Southwest 455 524 38,000  Level FlightAware
06:18AM 35.7420 138.7200 242° Southwest 454 522 38,000  Level FlightAware
06:18AM 35.7020 138.6280 242° Southwest 455 524 38,000  Level FlightAware
06:19AM 35.6700 138.5550 242° Southwest 457 526 38,000  Level FlightAware
06:22AM 35.4891 138.1813 239° Southwest  Level Estimated
06:23AM 35.4196 138.0390 239° Southwest  Level Estimated
06:23AM 35.4830 138.1300 239° Southwest 462 532 38,000  Level FlightAware
06:24AM 35.3930 137.9310 241° Southwest 457 526 38,000  Level FlightAware
06:24AM 35.3490 137.8330 241° Southwest 454 522 38,000  Level FlightAware
06:25AM 35.2950 137.7130 241° Southwest 458 527 38,000  Level FlightAware
06:26AM 35.2500 137.6100 242° Southwest 456 525 38,000  Level FlightAware
06:26AM 35.2120 137.5220 242° Southwest 455 524 38,000  Level FlightAware
06:27AM 35.1720 137.4300 242° Southwest 454 522 38,000  Level FlightAware
06:28AM 35.1270 137.3280 242° Southwest 454 522 38,000  Level FlightAware
06:29AM 35.0700 137.1950 242° Southwest 457 526 38,000  Level FlightAware
06:30AM 35.0280 137.1000 242° Southwest 454 522 38,000  Level FlightAware
06:30AM 34.9820 136.9950 242° Southwest 453 521 38,000  Level FlightAware
06:31AM 34.9540 136.9320 242° Southwest 452 520 38,000  Level FlightAware
06:32AM 34.9090 136.8320 241° Southwest 454 522 38,000  Level FlightAware
06:32AM 34.8610 136.7220 242° Southwest 456 525 38,000  Level FlightAware
06:33AM 34.8200 136.6290 242° Southwest 456 525 38,000  Level FlightAware
06:34AM 34.7790 136.5380 241° Southwest 455 524 38,000  Level FlightAware
06:34AM 34.7340 136.4380 241° Southwest 453 521 38,000  Level FlightAware
06:35AM 34.6950 136.3500 242° Southwest 454 522 38,000  Level FlightAware
06:36AM 34.6420 136.2340 241° Southwest 453 521 38,000  Level FlightAware
06:37AM 34.5990 136.1380 241° Southwest 451 519 38,000  Level FlightAware
06:37AM 34.5570 136.0440 242° Southwest 450 518 38,000  Level FlightAware
06:38AM 34.5220 135.9670 241° Southwest 450 518 38,000  Level FlightAware
06:39AM 34.4810 135.8770 241° Southwest 449 517 38,000  Level FlightAware
06:39AM 34.4350 135.7770 241° Southwest 449 517 38,000  Level FlightAware
06:40AM 34.3950 135.6880 241° Southwest 450 518 38,000  Level FlightAware
06:41AM 34.3540 135.6000 241° Southwest 450 518 38,000  Level FlightAware
06:41AM 34.3120 135.5080 241° Southwest 453 521 38,000  Level FlightAware
06:42AM 34.2660 135.4080 241° Southwest 453 521 38,000  Level FlightAware
06:43AM 34.2290 135.3270 241° Southwest 458 527 38,000  Level FlightAware
06:43AM 34.1880 135.2410 240° Southwest 459 528 38,000  Level FlightAware
06:44AM 34.1460 135.1490 241° Southwest 459 528 38,000  Level FlightAware
06:45AM 34.1050 135.0600 241° Southwest 460 529 38,000  Level FlightAware
06:45AM 34.0640 134.9730 240° Southwest 462 532 38,000  Level FlightAware
06:46AM 34.0210 134.8810 241° Southwest 457 526 38,000  Level FlightAware
06:47AM 33.9770 134.7820 242° Southwest 456 525 38,000  Level FlightAware
06:48AM 33.9310 134.6760 242° Southwest 457 526 38,000  Level FlightAware
06:48AM 33.8960 134.5990 241° Southwest 458 527 38,000  Level FlightAware
06:49AM 33.8510 134.4980 242° Southwest 458 527 38,000  Level FlightAware
06:49AM 33.8170 134.4240 241° Southwest 458 527 38,000  Level FlightAware
06:50AM 33.7710 134.3210 242° Southwest 463 533 38,000  Level FlightAware
06:51AM 33.7300 134.2310 241° Southwest 463 533 38,000  Level FlightAware
06:52AM 33.6870 134.1340 242° Southwest 463 533 38,000  Level FlightAware
06:52AM 33.6470 134.0470 241° Southwest 463 533 38,000  Level FlightAware
06:53AM 33.6090 133.9630 242° Southwest 462 532 38,000  Level FlightAware
06:54AM 33.5700 133.8770 241° Southwest 461 531 38,000  Level FlightAware
06:54AM 33.5230 133.7740 241° Southwest 460 529 38,000  Level FlightAware
06:55AM 33.4760 133.6730 241° Southwest 459 528 38,000  Level FlightAware
06:56AM 33.4360 133.5850 241° Southwest 459 528 38,000  Level FlightAware
06:56AM 33.3930 133.4920 241° Southwest 454 522 38,000  Level FlightAware
06:58AM 33.3150 133.3240 241° Southwest 455 524 38,000  Level FlightAware
06:58AM 33.2680 133.2230 241° Southwest 456 525 38,000  Level FlightAware
06:59AM 33.2270 133.1430 239° Southwest 461 531 38,000  Level FlightAware
07:00AM 33.1510 133.0170 234° Southwest 464 534 38,000  Level FlightAware
07:01AM 33.0990 132.9290 235° Southwest 466 536 38,000  Level FlightAware
07:02AM 33.0420 132.8320 235° Southwest 467 537 38,000  Level FlightAware
07:02AM 32.9870 132.7400 235° Southwest 464 534 38,000  Level FlightAware
07:03AM 32.9360 132.6530 235° Southwest 464 534 38,000  Level FlightAware
07:04AM 32.8790 132.5570 235° Southwest 461 531 38,000  Level FlightAware
07:04AM 32.8360 132.4840 235° Southwest 461 531 38,000  Level FlightAware
07:05AM 32.7810 132.3930 234° Southwest 462 532 38,000  Level FlightAware
07:06AM 32.7310 132.3090 235° Southwest 464 534 38,000  Level FlightAware
07:06AM 32.6750 132.2160 234° Southwest 465 535 38,000  Level FlightAware
07:07AM 32.6260 132.1330 235° Southwest 467 537 38,000  Level FlightAware
07:08AM 32.5760 132.0480 235° Southwest 469 540 38,000  Level FlightAware
07:08AM 32.5210 131.9540 235° Southwest 469 540 38,000  Level FlightAware
07:09AM 32.4660 131.8590 236° Southwest 465 535 38,000  Level FlightAware
07:10AM 32.4380 131.7740 249° West 463 533 38,000  Level FlightAware
07:11AM 32.4090 131.6380 256° West 464 534 38,000  Level FlightAware
07:11AM 32.3910 131.5610 255° West 460 529 38,000  Level FlightAware
07:12AM 32.3470 131.4300 248° West 462 532 38,000  Level FlightAware
07:13AM 32.2880 131.3440 231° Southwest 465 535 38,000  Level FlightAware
07:14AM 32.2360 131.2640 232° Southwest 459 528 38,000  Level FlightAware
07:14AM 32.1810 131.1820 232° Southwest 459 528 38,000  Level FlightAware
07:15AM 32.1310 131.1060 232° Southwest 462 532 38,000  Level FlightAware
07:16AM 32.0790 131.0290 231° Southwest 462 532 38,000  Level FlightAware
07:16AM 32.0190 130.9390 232° Southwest 464 534 38,000  Level FlightAware
07:17AM 31.9680 130.8620 232° Southwest 465 535 38,000  Level FlightAware
07:18AM 31.9070 130.7700 232° Southwest 467 537 38,000  Level FlightAware
07:18AM 31.8520 130.6890 231° Southwest 467 537 38,000  Level FlightAware
07:19AM 31.7990 130.6090 232° Southwest 469 540 38,000  Level FlightAware
07:21AM 31.6950 130.4530 232° Southwest 469 540 38,000  Level FlightAware
07:22AM 31.5980 130.3090 232° Southwest 469 540 38,000  Level FlightAware
07:23AM 31.5430 130.2270 232° Southwest 469 540 38,000  Level FlightAware
07:24AM 31.4340 130.0710 231° Southwest 472 543 38,000  Level FlightAware
07:25AM 31.3430 129.9380 231° Southwest 472 543 38,000  Level FlightAware
07:25AM 31.2980 129.8720 231° Southwest 472 543 38,000  Level FlightAware
07:26AM 31.2440 129.7940 231° Southwest 471 542 38,000  Level FlightAware
07:27AM 31.2460 129.7970 52° Northeast 472 543 38,000  Level FlightAware
07:28AM 31.2020 129.7330 231° Southwest 472 543 38,000  Level FlightAware
07:28AM 31.1460 129.6520 231° Southwest 472 543 38,000  Level FlightAware
07:29AM 31.1060 129.5950 231° Southwest 472 543 38,000  Level FlightAware
07:30AM 31.0470 129.5110 231° Southwest 472 543 38,000  Level FlightAware
07:30AM 31.0050 129.4500 231° Southwest 472 543 38,000  Level FlightAware
07:31AM 30.9490 129.3690 231° Southwest 472 543 38,000  Level FlightAware
07:32AM 30.9070 129.3090 231° Southwest 472 543 38,000  Level FlightAware
07:32AM 30.8650 129.2480 231° Southwest 472 543 38,000  Level FlightAware
07:33AM 30.8100 129.1690 231° Southwest 472 543 38,000  Level FlightAware
07:34AM 30.7680 129.1090 231° Southwest 472 543 38,000  Level FlightAware
07:35AM 30.7120 129.0280 231° Southwest 472 543 38,000  Level FlightAware
07:35AM 30.6700 128.9680 231° Southwest 472 543 38,000  Level FlightAware
07:36AM 30.6140 128.8880 231° Southwest 472 543 38,000 -180 Level FlightAware
07:39AM 30.3909 128.5729 231° Southwest  Level FlightAware Approximate
07:40AM 30.3048 128.4521 231° Southwest  Level FlightAware Approximate
07:41AM 30.2187 128.3314 230° Southwest  Level FlightAware Approximate
07:42AM 30.1324 128.2110 230° Southwest  Level FlightAware Approximate
07:43AM 30.0461 128.0909 230° Southwest  Level FlightAware Approximate
07:44AM 29.9542 127.9837 231° Southwest  Level FlightAware Approximate
07:45AM 29.8698 127.8619 231° Southwest  Level FlightAware Approximate
07:46AM 29.7858 127.7398 232° Southwest  Level FlightAware Approximate
07:47AM 29.7018 127.6178 232° Southwest  Level FlightAware Approximate
07:48AM 29.6177 127.4960 232° Southwest  Level FlightAware Approximate
07:49AM 29.5335 127.3744 231° Southwest  Level FlightAware Approximate
07:50AM 29.4492 127.2530 231° Southwest  Level FlightAware Approximate
07:51AM 29.3648 127.1319 231° Southwest  Level FlightAware Approximate
07:52AM 29.2803 127.0109 231° Southwest  Level FlightAware Approximate
07:53AM 29.1956 126.8901 231° Southwest  Level FlightAware Approximate
07:54AM 29.1109 126.7695 231° Southwest  Level FlightAware Approximate
07:55AM 29.0260 126.6491 231° Southwest  Level FlightAware Approximate
07:56AM 28.9410 126.5290 231° Southwest  Level FlightAware Approximate
07:57AM 28.8560 126.4090 231° Southwest  Level FlightAware Approximate
07:58AM 28.7708 126.2892 231° Southwest  Level FlightAware Approximate
07:59AM 28.6855 126.1696 231° Southwest  Level FlightAware Approximate
08:00AM 28.6001 126.0502 231° Southwest  Level FlightAware Approximate
08:01AM 28.5146 125.9310 231° Southwest  Level FlightAware Approximate
08:02AM 28.4290 125.8120 231° Southwest  Level FlightAware Approximate
08:03AM 28.3433 125.6931 231° Southwest  Level FlightAware Approximate
08:04AM 28.2575 125.5745 231° Southwest  Level FlightAware Approximate
08:05AM 28.1716 125.4561 231° Southwest  Level FlightAware Approximate
08:06AM 28.0856 125.3378 231° Southwest  Level FlightAware Approximate
08:07AM 27.9995 125.2197 230° Southwest  Level FlightAware Approximate
08:08AM 27.9133 125.1019 230° Southwest  Level FlightAware Approximate
08:09AM 27.8270 124.9842 230° Southwest  Level FlightAware Approximate
08:10AM 27.7406 124.8667 230° Southwest  Level FlightAware Approximate
08:11AM 27.6541 124.7494 230° Southwest  Level FlightAware Approximate
08:12AM 27.5674 124.6323 230° Southwest  Level FlightAware Approximate
08:13AM 27.4807 124.5153 230° Southwest  Level FlightAware Approximate
08:14AM 27.3939 124.3986 230° Southwest  Level FlightAware Approximate
08:15AM 27.3070 124.2820 230° Southwest  Level FlightAware Approximate
08:16AM 27.2200 124.1656 230° Southwest  Level FlightAware Approximate
08:17AM 27.1329 124.0494 230° Southwest  Level FlightAware Approximate
08:18AM 27.0454 123.9337 229° Southwest  Level FlightAware Approximate
08:19AM 26.9573 123.8186 229° Southwest  Level FlightAware Approximate
08:20AM 26.8691 123.7038 229° Southwest  Level FlightAware Approximate
08:21AM 26.7808 123.5891 229° Southwest  Level FlightAware Approximate
08:22AM 26.6924 123.4745 229° Southwest  Level FlightAware Approximate
08:23AM 26.6040 123.3602 229° Southwest  Level FlightAware Approximate
08:24AM 26.5154 123.2460 229° Southwest  Level FlightAware Approximate
08:25AM 26.4392 123.1255 233° Southwest  Level FlightAware Approximate
08:26AM 26.3486 123.0136 227° Southwest  Level FlightAware Approximate
08:27AM 26.2572 122.9026 227° Southwest  Level FlightAware Approximate
08:28AM 26.1697 122.7879 233° Southwest  Level FlightAware Approximate
08:29AM 26.0821 122.6733 229° Southwest  Level FlightAware Approximate
08:30AM 25.9940 122.5592 228° Southwest  Level FlightAware Approximate
08:31AM 25.9042 122.4468 228° Southwest  Level FlightAware Approximate
08:32AM 25.8144 122.3346 228° Southwest  Level FlightAware Approximate
08:32AM 26.1340 122.6550 229° Southwest 426 490 30,000  Level FlightAware
08:33AM 25.7259 122.2211 229° Southwest  Level FlightAware Approximate
08:33AM 26.0780 122.5920 225° Southwest 427 491 30,000  Level FlightAware
08:34AM 26.0150 122.5220 225° Southwest 427 491 30,000 -780 Level FlightAware
08:34AM 25.9540 122.4540 225° Southwest 420 483 28,900 -1,800 Descending FlightAware
08:35AM 25.8990 122.3930 225° Southwest 412 474 27,500 -2,040 Descending FlightAware
08:36AM 25.8460 122.3330 226° Southwest 404 465 26,200 -2,100 Descending FlightAware
08:37AM 25.7870 122.2680 225° Southwest 395 455 24,600 -2,040 Descending FlightAware
08:37AM 25.7430 122.2190 225° Southwest 389 448 23,500 -2,040 Descending FlightAware
08:38AM 25.6920 122.1620 225° Southwest 382 440 22,100 -2,100 Descending FlightAware
08:39AM 25.6380 122.1030 225° Southwest 375 432 20,600 -1,740 Descending FlightAware
08:39AM 25.5960 122.0530 227° Southwest 368 423 19,800 -720 Descending FlightAware
08:40AM 25.5420 121.9510 240° Southwest 367 422 19,400 -1,020 Descending FlightAware
08:41AM 25.5410 121.8590 269° West 362 417 17,800 -1,560 Descending FlightAware
08:42AM 25.5220 121.7540 259° West 341 392 16,800 -540 Descending FlightAware
08:45AM 25.2889 121.4798 235° Southwest  Level Estimated
08:45AM 25.4790 121.5310 235° Southwest 328 377 16,100  Level FlightAware
08:45AM 25.4690 121.4790 258° West 328 377 16,100  Level FlightAware
08:46AM 25.4560 121.4120 258° West 328 377 16,100  Level FlightAware
08:47AM 25.4460 121.3600 258° West 328 377 16,100 -1,740 Level FlightAware
08:49AM 25.1944 121.2730 197° South  Level Estimated
08:50AM 25.0777 121.2328 197° South  Level Estimated
08:50AM 25.1700 121.1710 61° Northeast 8,300  Level FlightAware
08:51AM 25.0777 121.2328 61° Northeast  Level Estimated
08:51AM 25.1550 121.1470 235° Southwest 244 281 7,900  Level FlightAware
08:51AM 25.1420 121.1240 238° Southwest 244 281 7,900  Level FlightAware
08:54AM 25.0777 121.2328 123° Southeast  Level Estimated
08:55AM 25.0777 121.2328 61° Northeast  Level Estimated